Sherburn, Minnesota
Current Conditions -  °F | °C
As of 1:14 PM on Thursday 23 Oct 2014 (Local Time) from KMJQ Reporting Station
Clear Clear  
Wind Chill: 68°   Ceiling: Unl
Heat Index: 68°   Visibility: 10mi
Dew Point: 45°   Wind: 10mph
Humidity: 43%   Direction: 260°W
Pressure: 30.01"   Gusts: NA
Location:  43.65°N, 94.73°W
Report Text: KMJQ 231814Z AUTO 26009KT 10SM CLR 20/07 A3001 RMK AO2
Loading
Personal Weather Stations






























Interactive Weather Map
Tropical Storm Tracking
New forecast layout! Learn more

10-Day Weather Forecast

Advertisements
Track Severe Weather on mobile